KHHF

Hemphill County Airport

Canadian, Texas, USA
METAR KHHF 191615Z AUTO 36016G22KT 10SM CLR M01/M08 A3032 RMK AO2 T10151083
Observed Flight Rules
Jan-19 @ 16:15 UTC (22 minutes ago) Visual Flight Rules
Wind Visibility Clouds
360° at 16 knots
 Gusting to 22 knots
10 miles
  • Clear skies
Temperatures Readings
Current -2°C / 28°F
Dewpoint -8°C / 18°F
Humidity 64%
Altimeter 30.32" Hg
Pressure 1026.72 hPa
Elevation 712
METAR KHHF 191615Z AUTO 36016G22KT 10SM CLR M01/M08 A3032 RMK AO2 T10151083
Observed Flight Rules
Jan-19 @ 16:15 UTC
(22 minutes ago)
VFR
Wind Visibility
360° at 16 knots
 Gusting to 22 knots
10 miles
Clouds
  • Clear skies
Temperature Dewpoint
-2°C / 28°F -8°C / 18°F
Humidity Altimeter Pressure
64% 30.32" Hg 1026.72 hPa